createdAt,value
2022-08-16T00:03:07.744Z,69.59
2022-08-16T00:09:15.784Z,69.08
2022-08-16T00:15:51.432Z,69.20
2022-08-16T00:21:57.086Z,69.33
2022-08-16T00:28:04.772Z,69.37
2022-08-16T00:34:08.433Z,69.36
2022-08-16T00:40:33.684Z,68.94
2022-08-16T00:46:54.050Z,69.10
2022-08-16T00:53:08.672Z,69.53
2022-08-16T00:59:15.265Z,69.32
2022-08-16T01:05:19.129Z,68.94
2022-08-16T01:11:27.295Z,69.14
2022-08-16T01:17:36.578Z,68.79
2022-08-16T01:24:51.866Z,68.90
2022-08-16T01:30:49.955Z,69.09
2022-08-16T01:37:01.461Z,69.37
2022-08-16T01:43:05.753Z,69.12
2022-08-16T01:49:12.803Z,68.69
2022-08-16T01:55:18.474Z,68.83
2022-08-16T02:01:20.584Z,68.64
2022-08-16T02:07:23.780Z,69.24
2022-08-16T02:13:27.738Z,68.98
2022-08-16T02:19:59.454Z,69.28
2022-08-16T02:25:59.529Z,69.08
2022-08-16T02:32:03.380Z,68.62
2022-08-16T02:38:24.097Z,68.79
2022-08-16T02:44:26.964Z,69.03
2022-08-16T02:50:54.696Z,69.19
2022-08-16T02:56:52.072Z,68.76
2022-08-16T03:02:56.507Z,68.78
2022-08-16T03:08:58.556Z,68.80
2022-08-16T03:15:01.804Z,68.72
2022-08-16T03:21:03.869Z,68.70
2022-08-16T03:27:06.999Z,68.49
2022-08-16T03:33:11.640Z,68.64
2022-08-16T03:39:15.126Z,68.41
2022-08-16T03:45:27.271Z,68.47
2022-08-16T03:51:33.093Z,68.31
2022-08-16T03:57:36.359Z,67.87
2022-08-16T04:03:38.377Z,67.56
2022-08-16T04:09:40.207Z,66.99
2022-08-16T04:15:42.169Z,68.00
2022-08-16T04:21:45.952Z,67.87
2022-08-16T04:27:54.256Z,67.05
2022-08-16T04:33:59.540Z,67.50
2022-08-16T04:40:01.304Z,68.35
2022-08-16T04:46:32.015Z,68.67
2022-08-16T04:52:34.595Z,67.79
2022-08-16T04:58:44.009Z,66.54
2022-08-16T05:04:47.973Z,69.43
2022-08-16T05:10:50.060Z,69.92
2022-08-16T05:16:52.109Z,70.94
2022-08-16T05:22:54.228Z,70.30
2022-08-16T05:28:58.719Z,70.36
2022-08-16T05:35:01.164Z,70.11
2022-08-16T05:41:03.904Z,69.98
2022-08-16T05:47:05.826Z,69.69
2022-08-16T05:53:10.075Z,70.16
2022-08-16T05:59:13.396Z,69.28
2022-08-16T06:05:15.844Z,69.44
2022-08-16T06:11:17.835Z,68.95
2022-08-16T06:17:21.537Z,69.02
2022-08-16T06:23:24.398Z,69.34
2022-08-16T06:29:26.510Z,69.07
2022-08-16T06:35:40.279Z,69.34
2022-08-16T06:41:42.320Z,69.00
2022-08-16T06:47:54.110Z,69.51
2022-08-16T06:53:58.289Z,69.02
2022-08-16T07:00:00.125Z,69.38
2022-08-16T07:06:04.805Z,68.93
2022-08-16T07:12:07.223Z,69.30
2022-08-16T07:18:11.338Z,69.33
2022-08-16T07:24:30.495Z,69.26
2022-08-16T07:30:39.655Z,69.59
2022-08-16T07:36:57.880Z,69.52
2022-08-16T07:43:00.811Z,69.18
2022-08-16T07:49:04.965Z,69.29
2022-08-16T07:55:15.318Z,69.06
2022-08-16T08:01:17.431Z,69.15
2022-08-16T08:07:19.384Z,69.51
2022-08-16T08:13:41.822Z,69.25
2022-08-16T08:19:45.853Z,69.14
2022-08-16T08:25:56.022Z,69.77
2022-08-16T08:31:57.890Z,69.63
2022-08-16T08:38:00.199Z,69.64
2022-08-16T08:44:29.464Z,69.60
2022-08-16T08:50:32.249Z,69.23
2022-08-16T08:56:45.479Z,69.59
2022-08-16T09:02:52.260Z,69.16
2022-08-16T09:08:54.739Z,69.16
2022-08-16T09:15:00.573Z,68.79
2022-08-16T09:21:02.429Z,69.33
2022-08-16T09:27:05.571Z,69.21
2022-08-16T09:33:07.708Z,69.60
2022-08-16T09:39:16.341Z,69.68
2022-08-16T09:45:18.757Z,71.22
2022-08-16T09:51:34.354Z,69.75
2022-08-16T09:57:41.755Z,71.01
2022-08-16T10:04:01.924Z,70.83
2022-08-16T10:10:09.787Z,69.87
2022-08-16T10:22:17.268Z,69.62
2022-08-16T10:28:28.529Z,68.59
2022-08-16T10:34:32.763Z,68.51
2022-08-16T10:40:35.695Z,68.36
2022-08-16T10:46:41.984Z,67.99
2022-08-16T10:52:44.762Z,68.10
2022-08-16T10:58:51.765Z,68.39
2022-08-16T11:05:10.694Z,68.55
2022-08-16T11:11:19.543Z,68.29
2022-08-16T11:17:22.230Z,68.54
2022-08-16T11:23:25.789Z,68.19
2022-08-16T11:29:27.636Z,68.33
2022-08-16T11:41:54.182Z,68.04
2022-08-16T11:47:56.028Z,68.11
2022-08-16T11:53:58.439Z,68.16
2022-08-16T12:00:00.852Z,68.24
2022-08-16T12:06:25.311Z,67.98
2022-08-16T12:12:32.873Z,68.02
2022-08-16T12:18:37.791Z,67.80
2022-08-16T12:24:41.634Z,67.80
2022-08-16T12:30:46.928Z,67.97
2022-08-16T12:36:48.847Z,68.04
2022-08-16T12:42:53.552Z,68.37
2022-08-16T12:48:58.272Z,68.15
2022-08-16T12:55:01.213Z,68.14
2022-08-16T13:01:03.997Z,68.52
2022-08-16T13:07:08.566Z,68.39
2022-08-16T13:13:11.017Z,67.74
2022-08-16T13:19:13.113Z,68.25
2022-08-16T13:25:21.246Z,68.09
2022-08-16T13:31:23.982Z,68.00
2022-08-16T13:37:25.983Z,67.63
2022-08-16T13:43:29.048Z,67.47
2022-08-16T13:49:35.591Z,66.90
2022-08-16T13:55:37.525Z,67.17
2022-08-16T14:01:43.232Z,67.00
2022-08-16T14:07:52.571Z,67.08
2022-08-16T14:13:54.901Z,67.03
2022-08-16T14:19:59.973Z,67.58
2022-08-16T14:26:02.507Z,67.21
2022-08-16T14:32:07.789Z,67.07
2022-08-16T14:38:11.272Z,67.63
2022-08-16T14:44:19.897Z,67.29
2022-08-16T14:50:25.630Z,66.99
2022-08-16T14:56:38.429Z,67.20
2022-08-16T15:02:45.273Z,67.10
2022-08-16T15:08:48.017Z,66.42
2022-08-16T15:14:52.292Z,67.34
2022-08-16T15:20:54.614Z,67.11
2022-08-16T15:26:56.958Z,67.33
2022-08-16T15:33:05.492Z,67.18
2022-08-16T15:39:25.611Z,67.20
2022-08-16T15:45:48.276Z,66.96
2022-08-16T15:51:57.763Z,67.55
2022-08-16T15:58:01.128Z,67.99
2022-08-16T16:04:25.848Z,66.81
2022-08-16T16:10:29.316Z,67.36
2022-08-16T16:16:31.784Z,67.71
2022-08-16T16:22:34.257Z,67.79
2022-08-16T16:29:05.073Z,67.87
2022-08-16T16:34:59.009Z,67.66
2022-08-16T16:41:09.418Z,68.06
2022-08-16T16:47:11.680Z,67.90
2022-08-16T16:53:17.143Z,68.29
2022-08-16T16:59:20.171Z,68.15
2022-08-16T17:05:23.201Z,68.13
2022-08-16T17:11:26.032Z,68.60
2022-08-16T17:17:36.131Z,68.80
2022-08-16T17:23:58.052Z,68.59
2022-08-16T17:30:01.259Z,68.61
2022-08-16T17:36:03.581Z,68.73
2022-08-16T17:42:15.749Z,69.05
2022-08-16T17:48:19.085Z,69.06
2022-08-16T17:54:30.149Z,68.88
2022-08-16T18:00:32.863Z,69.36
2022-08-16T18:06:34.667Z,69.60
2022-08-16T18:12:44.759Z,69.83
2022-08-16T18:18:53.359Z,69.31
2022-08-16T18:24:56.319Z,69.77
2022-08-16T18:31:01.127Z,69.88
2022-08-16T18:37:05.809Z,69.52
2022-08-16T18:43:14.092Z,69.87
2022-08-16T18:49:17.849Z,69.86
2022-08-16T18:55:21.411Z,70.56
2022-08-16T19:01:24.115Z,70.23
2022-08-16T19:07:30.716Z,69.99
2022-08-16T19:13:34.570Z,70.01
2022-08-16T19:19:36.286Z,70.33
2022-08-16T19:25:47.566Z,70.30
2022-08-16T19:31:51.231Z,70.26
2022-08-16T19:37:54.013Z,69.62
2022-08-16T19:43:55.797Z,70.22
2022-08-16T19:49:58.071Z,69.76
2022-08-16T19:55:59.953Z,69.86
2022-08-16T20:02:02.408Z,69.68
2022-08-16T20:08:04.755Z,69.81
2022-08-16T20:14:06.604Z,69.42
2022-08-16T20:20:08.778Z,69.52
2022-08-16T20:26:13.811Z,69.89
2022-08-16T20:32:23.965Z,69.83
2022-08-16T20:38:27.458Z,70.06
2022-08-16T20:44:29.333Z,70.11
2022-08-16T20:50:32.010Z,70.46
2022-08-16T20:56:33.710Z,70.81
2022-08-16T21:02:35.422Z,70.38
2022-08-16T21:08:51.989Z,70.10
2022-08-16T21:14:55.563Z,69.91
2022-08-16T21:20:57.344Z,69.90
2022-08-16T21:26:59.073Z,69.56
2022-08-16T21:33:10.081Z,69.38
2022-08-16T21:39:11.851Z,70.33
2022-08-16T21:45:14.534Z,70.29
2022-08-16T21:51:16.290Z,70.19
2022-08-16T21:57:22.801Z,70.12
2022-08-16T22:03:25.370Z,69.99
2022-08-16T22:09:27.261Z,69.72
2022-08-16T22:15:28.968Z,70.04
2022-08-16T22:21:32.004Z,70.02
2022-08-16T22:27:33.765Z,69.92
2022-08-16T22:33:35.512Z,69.79
2022-08-16T22:39:37.322Z,69.87
2022-08-16T22:45:39.385Z,69.56
2022-08-16T22:51:42.362Z,69.43
2022-08-16T22:57:44.494Z,69.39
2022-08-16T23:03:46.274Z,69.35
2022-08-16T23:09:48.038Z,69.47
2022-08-16T23:15:57.087Z,69.71
2022-08-16T23:22:00.820Z,69.00
2022-08-16T23:28:03.577Z,69.33
2022-08-16T23:34:05.349Z,69.37
2022-08-16T23:40:11.737Z,69.09
2022-08-16T23:46:17.092Z,69.26
2022-08-16T23:52:19.212Z,69.04
2022-08-16T23:58:47.013Z,69.14
